Time;durP1;ratioP1;P1;durP2;ratioP2;P2;SDS_P1;SDS_P2;PMS_P1;PMS_P2;Temp;Humidity;BMP_temperature;BMP_pressure;BME280_temperature;BME280_humidity;BME280_pressure;Samples;Min_cycle;Max_cycle;Signal;HPM_P1;HPM_P2
2022/08/10 00:00:38;;;;;;;3.60;2.08;;;16.40;99.90;;;;;;5014623;28;20474;-82
2022/08/10 00:03:06;;;;;;;2.90;1.75;;;16.30;99.90;;;;;;5013311;28;20061;-82
2022/08/10 00:06:03;;;;;;;4.60;2.33;;;16.30;99.90;;;;;;5002871;28;20033;-82
2022/08/10 00:08:28;;;;;;;2.05;1.75;;;16.30;99.90;;;;;;4995315;28;20471;-82
2022/08/10 00:10:55;;;;;;;5.53;1.88;;;16.20;99.90;;;;;;4999904;28;20028;-82
2022/08/10 00:13:25;;;;;;;5.07;2.05;;;16.20;99.90;;;;;;4994124;28;20026;-82
2022/08/10 00:15:51;;;;;;;2.03;1.73;;;16.20;99.90;;;;;;4995633;28;20494;-82
2022/08/10 00:18:17;;;;;;;4.45;2.65;;;16.10;99.90;;;;;;5014143;28;20037;-82
2022/08/10 00:20:57;;;;;;;5.40;2.13;;;16.10;99.90;;;;;;5014285;28;20026;-82
2022/08/10 00:23:22;;;;;;;2.13;1.92;;;16.10;99.90;;;;;;5014962;28;20025;-82
2022/08/10 00:25:56;;;;;;;5.82;2.38;;;16.10;99.90;;;;;;5014058;28;20022;-82
2022/08/10 00:28:22;;;;;;;4.80;2.05;;;16.00;99.90;;;;;;4993070;28;20422;-82
2022/08/10 00:30:47;;;;;;;4.25;2.22;;;16.00;99.90;;;;;;5011399;28;20068;-82
2022/08/10 00:33:43;;;;;;;8.02;2.78;;;15.90;99.90;;;;;;5011381;28;20026;-82
2022/08/10 00:36:45;;;;;;;7.28;2.33;;;15.90;99.90;;;;;;5013971;28;20459;-82
2022/08/10 00:39:11;;;;;;;3.38;2.67;;;15.90;99.90;;;;;;5012171;28;20505;-82
2022/08/10 00:41:37;;;;;;;2.75;2.15;;;15.80;99.90;;;;;;5013328;28;20034;-82
2022/08/10 00:44:08;;;;;;;5.50;1.92;;;15.80;99.90;;;;;;4998907;28;20026;-82
2022/08/10 00:46:34;;;;;;;2.22;2.03;;;15.80;99.90;;;;;;4994816;28;20035;-83
2022/08/10 00:49:32;;;;;;;3.45;2.33;;;15.70;99.90;;;;;;5002026;28;20034;-82
2022/08/10 00:51:57;;;;;;;2.45;2.25;;;15.70;99.90;;;;;;5010914;28;20046;-83
2022/08/10 00:54:43;;;;;;;5.65;2.70;;;15.70;99.90;;;;;;5013710;28;20617;-82
2022/08/10 00:57:10;;;;;;;4.20;2.58;;;15.70;99.90;;;;;;5004409;28;20018;-82
2022/08/10 00:59:36;;;;;;;6.07;2.20;;;15.60;99.90;;;;;;5013166;28;20057;-82
2022/08/10 01:02:18;;;;;;;8.60;2.25;;;15.70;99.90;;;;;;5004140;28;20114;-83
2022/08/10 01:04:43;;;;;;;4.40;2.50;;;15.60;99.90;;;;;;5003237;28;20092;-82
2022/08/10 01:11:00;;;;;;;4.13;2.25;;;15.50;99.90;;;;;;5000553;28;20037;-82
2022/08/10 01:13:45;;;;;;;3.45;2.17;;;15.50;99.90;;;;;;4993581;28;20029;-82
2022/08/10 01:16:43;;;;;;;2.72;2.13;;;15.50;99.90;;;;;;5012031;28;20429;-82
2022/08/10 01:23:01;;;;;;;3.35;2.28;;;15.40;99.90;;;;;;4993956;28;20382;-82
2022/08/10 01:25:47;;;;;;;3.47;2.47;;;15.40;99.90;;;;;;5009309;28;20034;-83
2022/08/10 01:28:43;;;;;;;2.60;2.40;;;15.40;99.90;;;;;;4999683;28;20036;-82
2022/08/10 01:31:14;;;;;;;4.32;2.13;;;15.40;99.90;;;;;;4999688;28;20026;-82
2022/08/10 01:33:57;;;;;;;2.40;1.95;;;15.30;99.90;;;;;;5008656;28;20393;-82
2022/08/10 01:36:37;;;;;;;5.40;2.20;;;15.30;99.90;;;;;;4996614;28;20041;-83
2022/08/10 01:39:05;;;;;;;4.78;2.90;;;15.30;99.90;;;;;;5008144;28;20034;-82
2022/08/10 01:41:39;;;;;;;4.28;2.20;;;15.30;99.90;;;;;;4998733;28;20433;-82
2022/08/10 01:44:30;;;;;;;4.18;2.53;;;15.20;99.90;;;;;;5012406;28;20386;-82
2022/08/10 01:48:27;;;;;;;4.57;2.58;;;15.20;99.90;;;;;;5009487;28;20022;-82
2022/08/10 01:50:16;;;;;;;5.38;2.10;;;15.20;99.90;;;;;;5000287;28;20117;-82
2022/08/10 01:52:45;;;;;;;8.20;2.33;;;15.20;99.90;;;;;;5000110;28;20117;-82
2022/08/10 01:55:35;;;;;;;2.63;2.35;;;15.20;99.90;;;;;;5012201;28;20026;-82
2022/08/10 01:58:04;;;;;;;5.70;2.33;;;15.20;99.90;;;;;;5000511;28;20053;-82
2022/08/10 02:00:35;;;;;;;3.83;2.08;;;15.10;99.90;;;;;;5012760;28;20444;-82
2022/08/10 02:03:03;;;;;;;5.10;2.42;;;15.10;99.90;;;;;;5005138;28;20030;-82
2022/08/10 02:05:33;;;;;;;4.53;2.63;;;15.00;99.90;;;;;;5010937;28;20389;-83
2022/08/10 02:08:01;;;;;;;6.75;2.15;;;15.00;99.90;;;;;;5005086;28;20025;-82
2022/08/10 02:10:28;;;;;;;2.95;2.35;;;14.90;99.90;;;;;;5015377;28;20482;-82
2022/08/10 02:13:07;;;;;;;6.22;2.45;;;14.90;99.90;;;;;;5015767;28;20030;-82
2022/08/10 02:15:35;;;;;;;1.88;1.73;;;14.90;99.90;;;;;;5016780;28;20018;-82
2022/08/10 02:18:11;;;;;;;3.65;2.03;;;14.90;99.90;;;;;;5016270;28;20018;-82
2022/08/10 02:20:42;;;;;;;;;;;14.90;99.90;;;;;;5012280;28;20041;-82
2022/08/10 02:23:14;;;;;;;3.22;1.67;;;14.80;99.90;;;;;;5010568;28;19912;-82
2022/08/10 02:25:59;;;;;;;6.20;1.85;;;14.90;99.90;;;;;;5012767;28;20089;-82
2022/08/10 02:28:27;;;;;;;2.92;2.30;;;14.80;99.90;;;;;;5015661;28;20061;-82
2022/08/10 02:31:30;;;;;;;3.25;2.30;;;14.80;99.90;;;;;;4997172;28;20026;-82
2022/08/10 02:33:56;;;;;;;2.88;2.17;;;14.80;99.90;;;;;;5012656;28;20105;-82
2022/08/10 02:36:26;;;;;;;3.88;2.65;;;14.80;99.90;;;;;;4991991;28;20035;-82
2022/08/10 02:38:54;;;;;;;1.95;1.83;;;14.80;99.90;;;;;;5014419;28;20565;-81
2022/08/10 02:41:40;;;;;;;2.83;1.90;;;14.70;99.90;;;;;;5014763;28;20032;-82
2022/08/10 02:44:21;;;;;;;4.07;2.25;;;14.70;99.90;;;;;;5012411;28;20026;-82
2022/08/10 02:50:18;;;;;;;3.60;2.30;;;14.70;99.90;;;;;;4994742;28;20123;-82
2022/08/10 02:52:47;;;;;;;3.17;2.75;;;14.70;99.90;;;;;;5013159;28;20030;-82
2022/08/10 02:55:21;;;;;;;3.10;2.33;;;14.60;99.90;;;;;;5014229;28;20356;-82
2022/08/10 02:57:53;;;;;;;3.67;2.15;;;14.60;99.90;;;;;;5015324;28;20029;-82
2022/08/10 03:00:25;;;;;;;6.80;2.97;;;14.60;99.90;;;;;;5013624;28;20026;-82
2022/08/10 03:02:51;;;;;;;3.65;2.65;;;14.60;99.90;;;;;;4996462;28;20046;-82
2022/08/10 03:05:20;;;;;;;3.25;2.72;;;14.60;99.90;;;;;;4994973;28;20498;-82
2022/08/10 03:08:00;;;;;;;4.47;2.40;;;14.60;99.90;;;;;;5012746;28;20614;-82
2022/08/10 03:10:29;;;;;;;3.28;2.60;;;14.60;99.90;;;;;;5005539;28;20026;-82
2022/08/10 03:12:59;;;;;;;3.42;2.45;;;14.50;99.90;;;;;;5002583;28;20042;-82
2022/08/10 03:15:27;;;;;;;7.20;3.33;;;14.50;99.90;;;;;;5012704;28;20437;-82
2022/08/10 03:17:55;;;;;;;3.42;2.65;;;14.40;99.90;;;;;;5013551;28;20432;-82
2022/08/10 03:20:22;;;;;;;7.55;3.03;;;14.40;99.90;;;;;;5014039;28;20049;-82
2022/08/10 03:22:51;;;;;;;5.63;2.83;;;14.40;99.90;;;;;;5015036;28;20486;-82
2022/08/10 03:25:27;;;;;;;6.53;2.75;;;14.40;99.90;;;;;;5014541;28;20030;-82
2022/08/10 03:27:53;;;;;;;2.65;2.00;;;14.40;99.90;;;;;;5003637;28;20049;-81
2022/08/10 03:30:25;;;;;;;4.95;3.03;;;14.40;99.90;;;;;;5013839;28;20064;-82
2022/08/10 03:32:52;;;;;;;2.97;2.53;;;14.40;99.90;;;;;;5014832;28;20049;-82
2022/08/10 03:35:20;;;;;;;3.78;2.58;;;14.40;99.90;;;;;;5013483;28;20022;-82
2022/08/10 03:37:53;;;;;;;4.60;2.83;;;14.40;99.90;;;;;;5011700;28;20038;-81
2022/08/10 03:40:22;;;;;;;9.30;2.67;;;14.30;99.90;;;;;;5008009;28;20541;-82
2022/08/10 03:42:56;;;;;;;5.20;2.70;;;14.30;99.90;;;;;;5003792;28;20037;-81
2022/08/10 03:45:23;;;;;;;4.53;2.58;;;14.30;99.90;;;;;;5010348;28;20033;-82
2022/08/10 03:47:57;;;;;;;5.68;3.10;;;14.30;99.90;;;;;;5010998;28;20034;-82
2022/08/10 03:50:23;;;;;;;4.38;3.05;;;14.30;99.90;;;;;;5009101;28;20564;-82
2022/08/10 03:52:56;;;;;;;4.63;3.08;;;14.30;99.90;;;;;;5004370;28;20030;-82
2022/08/10 03:55:23;;;;;;;8.73;3.30;;;14.20;99.90;;;;;;5013455;28;20022;-81
2022/08/10 03:57:51;;;;;;;4.45;2.65;;;14.20;99.90;;;;;;5012787;28;20026;-82
2022/08/10 04:00:17;;;;;;;3.00;2.58;;;14.20;99.90;;;;;;5012289;28;20033;-81
2022/08/10 04:02:51;;;;;;;4.10;2.90;;;14.20;99.90;;;;;;5012390;28;20029;-82
2022/08/10 04:05:23;;;;;;;2.78;2.58;;;14.20;99.90;;;;;;5014262;28;20037;-82
2022/08/10 04:07:49;;;;;;;3.45;2.78;;;14.30;99.90;;;;;;5014259;28;20029;-82
2022/08/10 04:10:15;;;;;;;3.22;2.70;;;14.30;99.90;;;;;;5010478;28;20387;-82
2022/08/10 04:12:44;;;;;;;6.25;3.10;;;14.30;99.90;;;;;;5012613;28;20096;-82
2022/08/10 04:15:12;;;;;;;5.47;3.30;;;14.30;99.90;;;;;;5014287;28;20030;-82
2022/08/10 04:17:38;;;;;;;6.25;3.25;;;14.20;99.90;;;;;;5014264;28;20088;-82
2022/08/10 04:20:07;;;;;;;5.22;2.67;;;14.30;99.90;;;;;;5011570;28;20034;-82
2022/08/10 04:22:40;;;;;;;3.55;3.13;;;14.20;99.90;;;;;;5007177;28;20026;-82
2022/08/10 04:25:10;;;;;;;7.63;3.90;;;14.20;99.90;;;;;;5013572;28;20042;-82
2022/08/10 04:27:40;;;;;;;2.58;2.38;;;14.20;99.90;;;;;;5013879;28;20383;-82
2022/08/10 04:30:06;;;;;;;3.80;2.80;;;14.20;99.90;;;;;;5009393;28;20037;-82
2022/08/10 04:32:33;;;;;;;4.57;2.92;;;14.30;99.90;;;;;;5005900;28;20026;-82
2022/08/10 04:35:04;;;;;;;9.68;3.53;;;14.30;99.90;;;;;;5013567;28;20041;-81
2022/08/10 04:37:30;;;;;;;6.63;2.88;;;14.30;99.90;;;;;;5009220;28;20038;-81
2022/08/10 04:39:56;;;;;;;7.65;3.25;;;14.30;99.90;;;;;;5002402;28;20030;-82
2022/08/10 04:42:25;;;;;;;6.10;2.83;;;14.30;99.90;;;;;;5011038;28;20040;-82
2022/08/10 04:44:54;;;;;;;5.93;3.42;;;14.30;99.90;;;;;;5006698;28;20030;-82
2022/08/10 04:47:20;;;;;;;4.20;3.15;;;14.30;99.90;;;;;;5012774;28;20079;-81
2022/08/10 04:49:45;;;;;;;4.30;3.63;;;14.30;99.90;;;;;;5003484;28;20552;-82
2022/08/10 04:52:11;;;;;;;9.45;3.97;;;14.40;99.90;;;;;;5013029;28;20382;-82
2022/08/10 04:54:39;;;;;;;5.53;3.42;;;14.40;99.90;;;;;;5005144;28;20030;-81
2022/08/10 04:57:05;;;;;;;4.95;3.47;;;14.40;99.90;;;;;;5000050;28;20079;-81
2022/08/10 04:59:30;;;;;;;3.22;2.92;;;14.50;99.90;;;;;;5009030;28;20018;-81
2022/08/10 05:01:56;;;;;;;4.03;3.08;;;14.50;99.90;;;;;;4999925;28;20033;-81
2022/08/10 05:04:21;;;;;;;10.48;3.22;;;14.60;99.90;;;;;;5011936;28;20045;-81
2022/08/10 05:06:47;;;;;;;5.50;2.83;;;14.60;99.90;;;;;;5012137;28;20033;-81
2022/08/10 05:09:13;;;;;;;4.47;3.30;;;14.70;99.90;;;;;;5000810;28;20045;-81
2022/08/10 05:11:39;;;;;;;8.55;3.67;;;14.80;99.90;;;;;;5011988;28;20038;-81
2022/08/10 05:14:05;;;;;;;3.85;3.28;;;14.90;99.90;;;;;;5010873;28;20026;-81
2022/08/10 05:16:30;;;;;;;6.15;3.97;;;14.90;99.90;;;;;;5011726;28;20474;-81
2022/08/10 05:18:56;;;;;;;5.85;3.78;;;15.00;99.90;;;;;;5010964;28;20400;-81
2022/08/10 05:21:22;;;;;;;9.65;3.47;;;15.10;99.90;;;;;;5012759;28;20093;-81
2022/08/10 05:23:47;;;;;;;7.30;3.92;;;15.10;99.90;;;;;;5011833;28;20055;-81
2022/08/10 05:26:13;;;;;;;5.40;2.97;;;15.20;99.90;;;;;;5011347;28;20046;-81
2022/08/10 05:28:39;;;;;;;4.38;3.10;;;15.30;99.90;;;;;;5011212;28;20026;-81
2022/08/10 05:31:04;;;;;;;6.60;4.07;;;15.30;99.90;;;;;;5011003;28;20017;-82
2022/08/10 05:33:30;;;;;;;5.90;3.38;;;15.40;99.90;;;;;;5011948;28;20037;-82
2022/08/10 05:35:57;;;;;;;5.10;2.83;;;15.50;99.90;;;;;;5012522;28;20105;-82
2022/08/10 05:38:25;;;;;;;11.73;3.05;;;15.50;99.90;;;;;;5010159;28;20068;-82
2022/08/10 05:40:51;;;;;;;7.22;3.67;;;15.60;99.90;;;;;;5013055;28;20535;-82
2022/08/10 05:43:19;;;;;;;4.68;3.67;;;15.70;99.90;;;;;;4999860;28;20030;-81
2022/08/10 05:45:46;;;;;;;7.10;3.42;;;15.80;99.90;;;;;;4999689;28;20482;-82
2022/08/10 05:48:20;;;;;;;7.30;4.18;;;15.80;99.90;;;;;;5012646;28;20022;-82
2022/08/10 05:50:45;;;;;;;4.47;3.40;;;15.90;99.90;;;;;;5012861;28;20061;-82
2022/08/10 05:53:18;;;;;;;4.20;3.20;;;16.00;99.90;;;;;;5003267;28;20476;-82
2022/08/10 05:55:44;;;;;;;10.27;4.00;;;16.10;99.90;;;;;;5011377;28;20389;-82
2022/08/10 05:58:32;;;;;;;8.65;3.85;;;16.10;99.90;;;;;;5008066;28;20161;-82
2022/08/10 06:01:01;;;;;;;5.70;3.05;;;16.20;99.90;;;;;;4993535;28;20026;-82
2022/08/10 06:03:33;;;;;;;6.30;3.15;;;16.30;99.90;;;;;;4993396;28;20091;-82
2022/08/10 06:05:59;;;;;;;5.80;3.03;;;16.40;99.90;;;;;;5010165;28;20022;-82
2022/08/10 06:08:32;;;;;;;5.95;3.30;;;16.50;99.90;;;;;;5011331;28;20029;-82
2022/08/10 06:11:11;;;;;;;4.60;2.78;;;16.60;99.90;;;;;;5007661;28;20026;-82
2022/08/10 06:16:39;;;;;;;5.20;2.57;;;16.70;99.90;;;;;;4993236;28;20034;-82
2022/08/10 06:19:05;;;;;;;7.30;3.25;;;16.80;99.90;;;;;;4992978;28;20026;-82
2022/08/10 06:21:32;;;;;;;10.63;3.50;;;16.90;99.90;;;;;;4993215;28;20026;-82
2022/08/10 06:24:00;;;;;;;9.30;2.78;;;17.00;99.90;;;;;;4993017;28;20028;-83
2022/08/10 06:26:26;;;;;;;6.07;3.13;;;17.10;99.90;;;;;;5000929;28;20037;-82
2022/08/10 06:29:42;;;;;;;4.75;3.08;;;17.20;99.90;;;;;;5012139;28;20414;-82
2022/08/10 06:32:10;;;;;;;5.35;2.42;;;17.20;99.90;;;;;;5012648;28;20026;-82
2022/08/10 06:34:47;;;;;;;8.90;2.88;;;17.30;99.90;;;;;;5012282;28;20100;-82
2022/08/10 06:37:30;;;;;;;3.63;2.38;;;17.30;99.90;;;;;;5011459;28;20069;-82
2022/08/10 06:39:55;;;;;;;5.70;2.55;;;17.30;99.90;;;;;;5012661;28;20026;-82
2022/08/10 06:42:39;;;;;;;5.65;2.63;;;17.40;99.90;;;;;;5012050;28;20080;-82
2022/08/10 06:45:30;;;;;;;7.18;2.40;;;17.50;99.90;;;;;;5011039;28;20025;-83
2022/08/10 06:48:01;;;;;;;3.75;2.65;;;17.50;99.90;;;;;;5003969;28;20382;-82
2022/08/10 06:50:38;;;;;;;4.07;2.42;;;17.60;99.90;;;;;;4993269;28;20031;-83
2022/08/10 06:53:18;;;;;;;5.55;2.92;;;17.70;99.90;;;;;;5012194;28;20030;-82
2022/08/10 06:55:50;;;;;;;5.70;2.78;;;17.70;99.90;;;;;;5013538;28;20033;-82
2022/08/10 06:58:36;;;;;;;6.15;3.53;;;17.80;99.90;;;;;;5015512;28;20152;-82
2022/08/10 07:01:06;;;;;;;16.23;3.15;;;17.90;99.90;;;;;;5006314;28;20021;-81
2022/08/10 07:03:41;;;;;;;3.95;3.13;;;17.90;99.90;;;;;;5015875;28;20026;-82
2022/08/10 07:06:11;;;;;;;7.05;2.63;;;18.00;99.90;;;;;;5000992;28;20034;-82
2022/08/10 07:09:06;;;;;;;6.03;2.50;;;18.00;99.90;;;;;;5015461;28;20516;-83
2022/08/10 07:11:33;;;;;;;9.23;3.00;;;18.10;99.90;;;;;;5013116;28;20037;-82
2022/08/10 07:14:00;;;;;;;5.03;2.90;;;18.20;99.90;;;;;;5005747;28;20482;-83
2022/08/10 07:16:44;;;;;;;4.55;2.80;;;18.20;99.90;;;;;;5015124;28;20432;-82
2022/08/10 07:19:11;;;;;;;7.78;2.80;;;18.30;99.90;;;;;;4996603;28;20025;-83
2022/08/10 07:21:40;;;;;;;5.95;2.60;;;18.40;99.90;;;;;;5013174;28;20026;-83
2022/08/10 07:24:19;;;;;;;8.85;2.80;;;18.40;99.90;;;;;;5010010;28;20025;-84
2022/08/10 07:26:48;;;;;;;3.25;2.40;;;18.50;99.90;;;;;;5012873;28;20034;-79
2022/08/10 07:29:21;;;;;;;4.15;2.47;;;18.60;99.90;;;;;;5012927;28;20057;-82
2022/08/10 07:31:48;;;;;;;6.80;2.60;;;18.70;99.90;;;;;;5015018;28;20034;-82
2022/08/10 07:34:18;;;;;;;5.05;2.85;;;18.70;99.90;;;;;;5013510;28;20105;-81
2022/08/10 07:36:46;;;;;;;6.20;3.25;;;18.80;99.90;;;;;;5007632;28;20125;-82
2022/08/10 07:39:12;;;;;;;13.35;3.28;;;18.80;99.90;;;;;;5012149;28;20034;-82
2022/08/10 07:41:41;;;;;;;13.95;3.22;;;18.90;99.90;;;;;;5015101;28;20041;-82
2022/08/10 07:44:09;;;;;;;5.90;3.28;;;19.00;99.90;;;;;;5014932;28;20544;-82
2022/08/10 07:46:42;;;;;;;5.20;3.08;;;19.10;99.90;;;;;;5014757;28;20022;-82
2022/08/10 07:49:16;;;;;;;6.78;2.90;;;19.20;99.90;;;;;;5014684;28;20037;-82
2022/08/10 07:51:42;;;;;;;6.20;2.90;;;19.30;99.90;;;;;;5013234;28;20386;-82
2022/08/10 07:54:14;;;;;;;10.35;3.35;;;19.40;99.90;;;;;;5013077;28;20029;-82
2022/08/10 07:56:43;;;;;;;7.93;3.88;;;19.50;99.90;;;;;;5014164;28;20056;-82
2022/08/10 07:59:13;;;;;;;10.40;3.45;;;19.60;99.90;;;;;;5014390;28;20022;-82
2022/08/10 08:01:43;;;;;;;7.72;2.78;;;19.60;99.90;;;;;;5014340;28;20069;-83
2022/08/10 08:04:11;;;;;;;6.35;3.00;;;19.70;99.90;;;;;;5014269;28;20478;-82
2022/08/10 08:06:38;;;;;;;5.28;3.03;;;19.80;99.90;;;;;;5012162;28;20382;-82
2022/08/10 08:09:04;;;;;;;6.20;2.50;;;19.90;99.90;;;;;;5013887;28;20022;-83
2022/08/10 08:11:31;;;;;;;4.70;2.13;;;20.00;99.90;;;;;;5013763;28;20377;-82
2022/08/10 08:14:01;;;;;;;6.93;2.30;;;20.10;99.90;;;;;;5008464;28;20105;-82
2022/08/10 08:16:28;;;;;;;4.05;2.30;;;20.10;99.90;;;;;;5005738;28;20025;-82
2022/08/10 08:18:56;;;;;;;8.52;2.40;;;20.20;99.90;;;;;;5012538;28;20050;-82
2022/08/10 08:21:22;;;;;;;7.10;2.60;;;20.20;99.90;;;;;;5013833;28;20026;-82
2022/08/10 08:23:52;;;;;;;8.98;2.60;;;20.30;99.90;;;;;;5014404;28;20014;-82
2022/08/10 08:26:20;;;;;;;8.18;2.42;;;20.40;99.90;;;;;;5014081;28;20018;-82
2022/08/10 08:28:47;;;;;;;3.88;1.80;;;20.50;99.90;;;;;;5014178;28;20053;-82
2022/08/10 08:31:21;;;;;;;7.35;2.55;;;20.60;99.90;;;;;;5014231;28;20466;-82
2022/08/10 08:33:49;;;;;;;14.45;4.00;;;20.70;99.90;;;;;;5014473;28;20050;-82
2022/08/10 08:36:18;;;;;;;9.68;2.35;;;20.80;99.90;;;;;;5014300;28;20018;-82
2022/08/10 08:38:44;;;;;;;5.80;1.83;;;20.90;99.90;;;;;;5011910;28;20045;-82
2022/08/10 08:41:51;;;;;;;8.77;2.58;;;20.90;99.90;;;;;;5014096;28;20092;-82
2022/08/10 08:44:54;;;;;;;4.82;2.40;;;21.00;99.90;;;;;;5013967;28;20029;-82
2022/08/10 08:47:43;;;;;;;9.88;2.35;;;21.10;99.90;;;;;;4990514;28;20501;-83
2022/08/10 08:50:46;;;;;;;10.13;2.17;;;21.20;99.90;;;;;;5011465;28;20128;-82
2022/08/10 08:53:48;;;;;;;7.07;2.28;;;21.30;99.90;;;;;;5001664;28;20501;-83
2022/08/10 08:56:24;;;;;;;4.05;1.98;;;21.40;99.90;;;;;;5009805;28;20470;-83
2022/08/10 08:58:49;;;;;;;3.38;2.15;;;21.40;99.90;;;;;;5005959;28;20030;-82
2022/08/10 09:01:53;;;;;;;3.45;1.77;;;21.50;99.90;;;;;;5009377;28;20032;-82
2022/08/10 09:04:33;;;;;;;7.28;1.90;;;21.50;99.90;;;;;;5008506;28;20486;-82
2022/08/10 09:07:37;;;;;;;8.40;3.03;;;21.60;99.90;;;;;;5012985;28;20492;-82
2022/08/10 09:10:43;;;;;;;6.38;2.28;;;21.70;99.90;;;;;;5006286;28;20477;-82
2022/08/10 09:13:53;;;;;;;11.38;2.70;;;21.80;99.90;;;;;;5011384;28;20022;-82
2022/08/10 09:23:38;;;;;;;4.20;2.80;;;22.10;99.90;;;;;;5002590;28;20079;-83
2022/08/10 09:26:20;;;;;;;5.10;2.20;;;22.10;99.90;;;;;;5011391;28;20030;-82
2022/08/10 09:28:47;;;;;;;8.98;2.58;;;22.20;99.90;;;;;;5012810;28;20022;-82
2022/08/10 09:31:19;;;;;;;4.93;2.00;;;22.30;99.90;;;;;;5012726;28;20026;-83
2022/08/10 09:33:56;;;;;;;10.25;2.00;;;22.40;99.90;;;;;;5012661;28;20497;-83
2022/08/10 09:36:45;;;;;;;3.65;1.67;;;22.50;96.40;;;;;;5012653;28;20026;-82
2022/08/10 09:39:39;;;;;;;2.28;1.90;;;22.60;94.40;;;;;;4981784;28;20541;-82
2022/08/10 09:42:38;;;;;;;3.72;2.00;;;22.60;92.40;;;;;;5012352;28;20022;-82
2022/08/10 09:45:17;;;;;;;5.32;2.42;;;22.70;91.90;;;;;;5012629;28;20406;-82
2022/08/10 09:48:05;;;;;;;6.35;2.08;;;22.60;93.10;;;;;;5011249;28;20034;-83
2022/08/10 09:50:42;;;;;;;5.82;1.90;;;22.70;91.40;;;;;;5012641;28;20049;-83
2022/08/10 09:53:13;;;;;;;9.20;3.22;;;22.80;90.80;;;;;;4996494;28;20022;-82
2022/08/10 09:55:55;;;;;;;6.72;2.05;;;22.80;87.90;;;;;;5012616;28;20021;-83
2022/08/10 09:58:48;;;;;;;5.03;2.03;;;22.80;88.60;;;;;;5007858;28;20056;-83
2022/08/10 10:01:59;;;;;;;3.17;1.70;;;22.80;85.30;;;;;;5007016;28;20022;-84
2022/08/10 10:04:57;;;;;;;2.80;1.83;;;22.90;81.80;;;;;;5012684;28;20030;-82
2022/08/10 10:07:26;;;;;;;4.57;1.92;;;23.00;80.00;;;;;;5008880;28;20018;-82
2022/08/10 10:09:55;;;;;;;3.67;1.67;;;23.00;80.70;;;;;;5005138;28;20026;-82
2022/08/10 10:12:51;;;;;;;3.17;2.22;;;23.10;79.20;;;;;;5011342;28;20022;-83
2022/08/10 10:16:04;;;;;;;8.10;2.05;;;23.10;79.50;;;;;;4996891;28;20022;-82
2022/08/10 10:18:45;;;;;;;12.45;2.00;;;23.20;78.30;;;;;;5012429;28;20026;-82
2022/08/10 10:21:38;;;;;;;7.35;1.83;;;23.20;76.40;;;;;;5011980;28;20037;-83
2022/08/10 10:24:45;;;;;;;10.25;2.05;;;23.30;72.50;;;;;;5011901;28;20084;-84
2022/08/10 10:27:33;;;;;;;9.15;1.70;;;23.40;69.00;;;;;;5009087;28;20422;-82
2022/08/10 10:30:02;;;;;;;2.92;1.52;;;23.40;67.90;;;;;;4998554;28;20049;-83
2022/08/10 10:32:46;;;;;;;6.45;1.60;;;23.30;65.10;;;;;;5005654;28;20434;-83
2022/08/10 10:35:22;;;;;;;4.20;1.95;;;23.20;61.40;;;;;;4999913;28;20106;-83
2022/08/10 10:38:10;;;;;;;5.53;1.98;;;23.20;61.70;;;;;;5011876;28;20105;-83
2022/08/10 10:41:17;;;;;;;3.33;1.35;;;23.20;60.00;;;;;;5003254;28;20171;-83
2022/08/10 10:44:25;;;;;;;4.75;1.52;;;23.20;60.40;;;;;;5013459;28;20068;-83
2022/08/10 10:47:03;;;;;;;14.52;2.20;;;23.30;64.10;;;;;;4987558;28;20534;-82
2022/08/10 10:49:52;;;;;;;2.65;1.48;;;23.40;63.50;;;;;;5015636;28;20029;-83
2022/08/10 10:52:55;;;;;;;3.67;1.52;;;23.50;63.40;;;;;;5028751;28;20470;-83
2022/08/10 10:55:41;;;;;;;5.97;1.67;;;23.60;62.30;;;;;;5007263;28;20533;-83
2022/08/10 10:58:22;;;;;;;6.88;1.95;;;23.70;60.00;;;;;;5015187;28;20022;-83
2022/08/10 11:01:33;;;;;;;7.93;2.20;;;23.80;63.00;;;;;;5015280;28;20109;-83
2022/08/10 11:04:16;;;;;;;6.00;1.80;;;24.00;60.10;;;;;;5014498;28;20076;-83
2022/08/10 11:06:59;;;;;;;5.65;1.70;;;24.10;59.00;;;;;;5015179;28;20025;-83
2022/08/10 11:09:35;;;;;;;8.55;1.50;;;24.10;56.60;;;;;;5011327;28;20388;-83
2022/08/10 11:12:31;;;;;;;9.77;1.70;;;24.10;54.80;;;;;;5007867;28;20026;-83
2022/08/10 11:15:18;;;;;;;2.83;1.10;;;24.10;54.50;;;;;;4977889;28;20050;-83
2022/08/10 11:17:58;;;;;;;6.15;1.20;;;24.20;53.10;;;;;;5012678;28;20217;-84
2022/08/10 11:20:32;;;;;;;5.75;1.10;;;24.20;52.40;;;;;;5013002;28;20711;-83
2022/08/10 11:22:57;;;;;;;2.17;1.30;;;24.20;51.90;;;;;;5011200;28;20030;-84
2022/08/10 11:25:37;;;;;;;5.28;1.23;;;24.20;50.50;;;;;;5011760;28;20105;-83
2022/08/10 11:28:12;;;;;;;7.35;1.65;;;24.20;51.70;;;;;;5014053;28;20037;-83
2022/08/10 11:30:46;;;;;;;6.50;1.35;;;24.30;53.20;;;;;;5014867;28;20061;-83
2022/08/10 11:33:49;;;;;;;4.32;1.40;;;24.30;53.00;;;;;;5014884;28;20050;-82
2022/08/10 11:36:48;;;;;;;8.38;1.40;;;24.30;53.20;;;;;;5014777;28;20538;-83
2022/08/10 11:39:20;;;;;;;4.65;1.58;;;24.40;51.90;;;;;;5015070;28;20136;-84
2022/08/10 11:42:20;;;;;;;4.88;1.60;;;24.40;51.70;;;;;;5014427;28;20075;-83
2022/08/10 11:44:58;;;;;;;7.93;1.40;;;24.50;52.00;;;;;;5013337;28;20029;-84
2022/08/10 11:47:36;;;;;;;2.95;1.00;;;24.60;51.40;;;;;;5013257;28;20034;-83
2022/08/10 11:50:33;;;;;;;0.95;0.95;;;24.60;49.10;;;;;;5014473;28;20034;-83
2022/08/10 11:53:25;;;;;;;2.90;1.15;;;24.60;48.80;;;;;;5012117;28;20100;-83
2022/08/10 11:55:56;;;;;;;1.17;0.85;;;24.50;48.40;;;;;;4993190;28;20059;-83
2022/08/10 12:01:23;;;;;;;2.80;0.80;;;24.60;48.80;;;;;;5010981;28;20041;-86
2022/08/10 12:03:50;;;;;;;2.25;1.00;;;24.70;48.20;;;;;;5011267;28;20042;-84
2022/08/10 12:06:19;;;;;;;7.78;1.80;;;24.70;46.50;;;;;;5012492;28;20041;-83
2022/08/10 12:08:47;;;;;;;6.47;1.10;;;24.70;47.60;;;;;;5000049;28;20165;-83
2022/08/10 12:11:25;;;;;;;2.35;1.50;;;24.70;48.60;;;;;;5010535;28;20036;-83
2022/08/10 12:14:16;;;;;;;5.50;0.90;;;24.80;47.10;;;;;;5011845;28;20030;-83
2022/08/10 12:16:55;;;;;;;4.63;1.20;;;24.80;47.30;;;;;;5013112;28;20030;-83
2022/08/10 12:19:41;;;;;;;2.72;1.50;;;24.90;48.30;;;;;;5013892;28;20108;-83
2022/08/10 12:22:13;;;;;;;4.95;1.27;;;24.90;48.10;;;;;;5013834;28;20048;-83
2022/08/10 12:25:14;;;;;;;1.65;1.15;;;25.00;48.00;;;;;;5012733;28;20026;-83
2022/08/10 12:27:51;;;;;;;2.00;1.10;;;25.00;46.60;;;;;;5007669;28;20374;-83
2022/08/10 12:30:21;;;;;;;4.15;1.40;;;25.10;45.50;;;;;;5006793;28;20386;-84
2022/08/10 12:33:09;;;;;;;2.15;1.00;;;25.00;45.10;;;;;;5009970;28;20156;-82
2022/08/10 12:35:59;;;;;;;5.32;1.40;;;25.00;44.60;;;;;;5003168;28;20535;-83
2022/08/10 12:38:37;;;;;;;2.25;1.05;;;25.10;47.00;;;;;;5008091;28;20042;-82
2022/08/10 12:41:08;;;;;;;16.88;1.77;;;25.20;45.90;;;;;;5011432;28;20084;-82
2022/08/10 12:43:42;;;;;;;2.05;1.10;;;25.30;46.10;;;;;;5002860;28;20065;-83
2022/08/10 12:46:44;;;;;;;1.65;0.93;;;25.30;46.40;;;;;;5007469;28;20034;-83
2022/08/10 12:49:45;;;;;;;2.75;1.25;;;25.40;46.40;;;;;;5012430;28;20129;-82
2022/08/10 12:52:18;;;;;;;3.67;1.33;;;25.50;46.20;;;;;;5010342;28;20022;-83
2022/08/10 12:54:45;;;;;;;5.22;1.10;;;25.60;46.80;;;;;;5001848;28;20026;-83
2022/08/10 12:57:14;;;;;;;7.00;1.38;;;25.70;46.40;;;;;;5009268;28;20026;-83
2022/08/10 12:59:43;;;;;;;4.20;1.08;;;25.80;44.80;;;;;;5009273;28;20023;-82
2022/08/10 13:02:13;;;;;;;7.28;1.23;;;25.70;45.20;;;;;;4994315;28;20030;-83
2022/08/10 13:04:44;;;;;;;9.95;1.42;;;25.70;44.80;;;;;;4994066;28;20030;-83
2022/08/10 13:07:11;;;;;;;6.32;1.38;;;25.70;44.10;;;;;;5011377;28;20038;-83
2022/08/10 13:09:36;;;;;;;4.57;1.08;;;25.60;43.50;;;;;;5012667;28;20041;-84
2022/08/10 13:12:10;;;;;;;4.82;1.63;;;25.60;43.60;;;;;;5002678;28;20109;-83
2022/08/10 13:14:45;;;;;;;3.08;1.27;;;25.50;43.70;;;;;;4993628;28;20022;-84
2022/08/10 13:17:12;;;;;;;12.40;1.42;;;25.50;43.70;;;;;;4995337;28;20049;-83
2022/08/10 13:19:42;;;;;;;8.80;2.05;;;25.50;43.90;;;;;;5012426;28;20521;-83
2022/08/10 13:22:08;;;;;;;3.20;1.05;;;25.60;44.40;;;;;;5012205;28;20112;-84
2022/08/10 13:24:42;;;;;;;6.78;1.23;;;25.70;44.90;;;;;;5012792;28;20038;-83
2022/08/10 13:27:42;;;;;;;1.63;1.20;;;25.80;44.30;;;;;;4993237;28;20030;-84
2022/08/10 13:30:15;;;;;;;4.45;1.35;;;25.80;44.40;;;;;;4950907;29;20055;-84
2022/08/10 13:32:53;;;;;;;5.85;1.63;;;25.80;45.10;;;;;;4935574;29;20049;-84
2022/08/10 13:35:20;;;;;;;2.20;1.23;;;25.80;45.30;;;;;;4945075;29;20051;-84
2022/08/10 13:37:47;;;;;;;3.05;0.90;;;25.80;44.40;;;;;;4951543;28;20110;-84
2022/08/10 13:40:18;;;;;;;1.00;0.90;;;25.80;44.20;;;;;;4952454;28;20066;-83
2022/08/10 13:42:45;;;;;;;6.78;1.17;;;25.80;43.90;;;;;;4952527;29;20369;-82
2022/08/10 13:45:22;;;;;;;4.18;1.48;;;25.80;43.50;;;;;;4951653;29;20031;-83
2022/08/10 13:47:52;;;;;;;10.77;1.10;;;25.80;43.40;;;;;;4938223;29;20433;-80
2022/08/10 13:50:28;;;;;;;5.63;1.20;;;25.90;43.20;;;;;;4948588;28;20035;-81
2022/08/10 13:52:57;;;;;;;4.88;0.88;;;25.90;42.70;;;;;;4959247;28;20042;-82